sensor_id;sensor_type;location;lat;lon;timestamp;P1;durP1;ratioP1;P2;durP2;ratioP2
7571;SDS011;3827;49.928;8.548;2023-07-31T00:00:48;2.65;;;1.60;;
7571;SDS011;3827;49.928;8.548;2023-07-31T00:03:15;2.15;;;1.45;;
7571;SDS011;3827;49.928;8.548;2023-07-31T00:05:41;2.92;;;1.50;;
7571;SDS011;3827;49.928;8.548;2023-07-31T00:08:08;2.20;;;1.50;;
7571;SDS011;3827;49.928;8.548;2023-07-31T00:10:35;1.63;;;1.30;;
7571;SDS011;3827;49.928;8.548;2023-07-31T00:13:03;2.70;;;1.30;;
7571;SDS011;3827;49.928;8.548;2023-07-31T00:15:30;1.67;;;1.15;;
7571;SDS011;3827;49.928;8.548;2023-07-31T00:17:57;2.00;;;1.10;;
7571;SDS011;3827;49.928;8.548;2023-07-31T00:20:23;2.60;;;1.27;;
7571;SDS011;3827;49.928;8.548;2023-07-31T00:22:50;1.90;;;1.20;;
7571;SDS011;3827;49.928;8.548;2023-07-31T00:25:17;3.75;;;1.38;;
7571;SDS011;3827;49.928;8.548;2023-07-31T00:27:44;3.20;;;1.40;;
7571;SDS011;3827;49.928;8.548;2023-07-31T00:30:12;2.40;;;1.30;;
7571;SDS011;3827;49.928;8.548;2023-07-31T00:32:39;3.67;;;1.50;;
7571;SDS011;3827;49.928;8.548;2023-07-31T00:35:06;1.45;;;1.20;;
7571;SDS011;3827;49.928;8.548;2023-07-31T00:37:33;2.58;;;1.27;;
7571;SDS011;3827;49.928;8.548;2023-07-31T00:39:59;2.00;;;1.70;;
7571;SDS011;3827;49.928;8.548;2023-07-31T00:42:28;2.20;;;1.23;;
7571;SDS011;3827;49.928;8.548;2023-07-31T00:44:55;3.00;;;1.33;;
7571;SDS011;3827;49.928;8.548;2023-07-31T00:47:23;2.13;;;1.17;;
7571;SDS011;3827;49.928;8.548;2023-07-31T00:49:50;2.85;;;1.20;;
7571;SDS011;3827;49.928;8.548;2023-07-31T00:52:17;3.05;;;1.20;;
7571;SDS011;3827;49.928;8.548;2023-07-31T00:54:45;2.15;;;1.30;;
7571;SDS011;3827;49.928;8.548;2023-07-31T00:57:12;2.75;;;1.30;;
7571;SDS011;3827;49.928;8.548;2023-07-31T00:59:38;1.90;;;1.10;;
7571;SDS011;3827;49.928;8.548;2023-07-31T01:02:05;2.83;;;1.30;;
7571;SDS011;3827;49.928;8.548;2023-07-31T01:04:33;2.08;;;1.30;;
7571;SDS011;3827;49.928;8.548;2023-07-31T01:07:02;3.53;;;1.23;;
7571;SDS011;3827;49.928;8.548;2023-07-31T01:09:40;2.50;;;1.20;;
7571;SDS011;3827;49.928;8.548;2023-07-31T01:12:12;2.25;;;1.40;;
7571;SDS011;3827;49.928;8.548;2023-07-31T01:14:42;2.40;;;1.33;;
7571;SDS011;3827;49.928;8.548;2023-07-31T01:17:17;2.80;;;1.38;;
7571;SDS011;3827;49.928;8.548;2023-07-31T01:19:45;3.27;;;1.50;;
7571;SDS011;3827;49.928;8.548;2023-07-31T01:22:22;2.08;;;1.30;;
7571;SDS011;3827;49.928;8.548;2023-07-31T01:25:00;2.60;;;1.40;;
7571;SDS011;3827;49.928;8.548;2023-07-31T01:27:37;2.22;;;1.25;;
7571;SDS011;3827;49.928;8.548;2023-07-31T01:30:11;2.67;;;1.30;;
7571;SDS011;3827;49.928;8.548;2023-07-31T01:32:42;2.20;;;1.25;;
7571;SDS011;3827;49.928;8.548;2023-07-31T01:35:11;1.45;;;1.10;;
7571;SDS011;3827;49.928;8.548;2023-07-31T01:37:38;3.60;;;1.65;;
7571;SDS011;3827;49.928;8.548;2023-07-31T01:40:05;2.17;;;1.38;;
7571;SDS011;3827;49.928;8.548;2023-07-31T01:42:33;3.63;;;1.55;;
7571;SDS011;3827;49.928;8.548;2023-07-31T01:45:01;4.13;;;1.33;;
7571;SDS011;3827;49.928;8.548;2023-07-31T01:47:28;1.70;;;1.20;;
7571;SDS011;3827;49.928;8.548;2023-07-31T01:49:54;3.33;;;1.70;;
7571;SDS011;3827;49.928;8.548;2023-07-31T01:52:21;1.97;;;1.30;;
7571;SDS011;3827;49.928;8.548;2023-07-31T01:54:48;2.17;;;1.58;;
7571;SDS011;3827;49.928;8.548;2023-07-31T01:57:14;2.20;;;1.40;;
7571;SDS011;3827;49.928;8.548;2023-07-31T01:59:41;3.15;;;1.40;;
7571;SDS011;3827;49.928;8.548;2023-07-31T02:02:09;2.90;;;1.40;;
7571;SDS011;3827;49.928;8.548;2023-07-31T02:04:36;2.67;;;1.30;;
7571;SDS011;3827;49.928;8.548;2023-07-31T02:07:04;4.05;;;1.40;;
7571;SDS011;3827;49.928;8.548;2023-07-31T02:09:31;2.88;;;1.42;;
7571;SDS011;3827;49.928;8.548;2023-07-31T02:11:58;3.03;;;1.50;;
7571;SDS011;3827;49.928;8.548;2023-07-31T02:14:25;3.03;;;1.70;;
7571;SDS011;3827;49.928;8.548;2023-07-31T02:16:51;2.90;;;1.50;;
7571;SDS011;3827;49.928;8.548;2023-07-31T02:19:19;2.35;;;1.58;;
7571;SDS011;3827;49.928;8.548;2023-07-31T02:21:46;3.28;;;1.50;;
7571;SDS011;3827;49.928;8.548;2023-07-31T02:24:13;3.15;;;1.50;;
7571;SDS011;3827;49.928;8.548;2023-07-31T02:26:40;3.17;;;1.70;;
7571;SDS011;3827;49.928;8.548;2023-07-31T02:29:07;2.80;;;1.60;;
7571;SDS011;3827;49.928;8.548;2023-07-31T02:31:34;1.65;;;1.33;;
7571;SDS011;3827;49.928;8.548;2023-07-31T02:34:00;3.33;;;1.67;;
7571;SDS011;3827;49.928;8.548;2023-07-31T02:36:28;2.70;;;1.40;;
7571;SDS011;3827;49.928;8.548;2023-07-31T02:38:55;2.37;;;1.60;;
7571;SDS011;3827;49.928;8.548;2023-07-31T02:41:22;2.38;;;1.30;;
7571;SDS011;3827;49.928;8.548;2023-07-31T02:43:48;2.47;;;1.70;;
7571;SDS011;3827;49.928;8.548;2023-07-31T02:46:15;2.67;;;1.50;;
7571;SDS011;3827;49.928;8.548;2023-07-31T02:48:42;3.17;;;1.70;;
7571;SDS011;3827;49.928;8.548;2023-07-31T02:51:09;3.58;;;1.60;;
7571;SDS011;3827;49.928;8.548;2023-07-31T02:53:37;3.92;;;1.95;;
7571;SDS011;3827;49.928;8.548;2023-07-31T02:56:04;3.90;;;1.60;;
7571;SDS011;3827;49.928;8.548;2023-07-31T02:58:30;3.23;;;1.63;;
7571;SDS011;3827;49.928;8.548;2023-07-31T03:00:57;3.08;;;1.40;;
7571;SDS011;3827;49.928;8.548;2023-07-31T03:03:24;2.63;;;1.63;;
7571;SDS011;3827;49.928;8.548;2023-07-31T03:05:51;2.70;;;1.77;;
7571;SDS011;3827;49.928;8.548;2023-07-31T03:08:18;2.35;;;1.70;;
7571;SDS011;3827;49.928;8.548;2023-07-31T03:10:46;3.38;;;1.55;;
7571;SDS011;3827;49.928;8.548;2023-07-31T03:13:13;4.25;;;1.92;;
7571;SDS011;3827;49.928;8.548;2023-07-31T03:15:41;3.28;;;1.80;;
7571;SDS011;3827;49.928;8.548;2023-07-31T03:18:08;3.08;;;1.48;;
7571;SDS011;3827;49.928;8.548;2023-07-31T03:20:35;2.28;;;1.50;;
7571;SDS011;3827;49.928;8.548;2023-07-31T03:23:01;2.72;;;1.45;;
7571;SDS011;3827;49.928;8.548;2023-07-31T03:25:28;3.08;;;1.80;;
7571;SDS011;3827;49.928;8.548;2023-07-31T03:27:56;4.63;;;1.60;;
7571;SDS011;3827;49.928;8.548;2023-07-31T03:30:23;2.55;;;1.50;;
7571;SDS011;3827;49.928;8.548;2023-07-31T03:32:50;3.63;;;1.90;;
7571;SDS011;3827;49.928;8.548;2023-07-31T03:35:16;3.47;;;1.67;;
7571;SDS011;3827;49.928;8.548;2023-07-31T03:37:43;2.83;;;1.73;;
7571;SDS011;3827;49.928;8.548;2023-07-31T03:40:10;4.47;;;1.60;;
7571;SDS011;3827;49.928;8.548;2023-07-31T03:42:37;1.63;;;1.50;;
7571;SDS011;3827;49.928;8.548;2023-07-31T03:45:06;3.95;;;1.77;;
7571;SDS011;3827;49.928;8.548;2023-07-31T03:47:34;2.42;;;1.70;;
7571;SDS011;3827;49.928;8.548;2023-07-31T03:50:01;2.40;;;1.87;;
7571;SDS011;3827;49.928;8.548;2023-07-31T03:52:27;2.43;;;1.63;;
7571;SDS011;3827;49.928;8.548;2023-07-31T03:54:54;2.70;;;1.73;;
7571;SDS011;3827;49.928;8.548;2023-07-31T03:57:21;3.92;;;1.90;;
7571;SDS011;3827;49.928;8.548;2023-07-31T03:59:48;4.25;;;1.80;;
7571;SDS011;3827;49.928;8.548;2023-07-31T04:02:16;4.13;;;2.05;;
7571;SDS011;3827;49.928;8.548;2023-07-31T04:04:43;3.47;;;1.92;;
7571;SDS011;3827;49.928;8.548;2023-07-31T04:07:10;3.97;;;2.08;;
7571;SDS011;3827;49.928;8.548;2023-07-31T04:09:37;2.20;;;1.50;;
7571;SDS011;3827;49.928;8.548;2023-07-31T04:12:04;3.58;;;1.90;;
7571;SDS011;3827;49.928;8.548;2023-07-31T04:14:33;3.20;;;1.90;;
7571;SDS011;3827;49.928;8.548;2023-07-31T04:17:00;4.13;;;2.13;;
7571;SDS011;3827;49.928;8.548;2023-07-31T04:19:28;2.22;;;1.60;;
7571;SDS011;3827;49.928;8.548;2023-07-31T04:21:55;3.22;;;1.98;;
7571;SDS011;3827;49.928;8.548;2023-07-31T04:24:25;3.05;;;2.00;;
7571;SDS011;3827;49.928;8.548;2023-07-31T04:26:51;3.42;;;2.00;;
7571;SDS011;3827;49.928;8.548;2023-07-31T04:29:18;4.38;;;2.17;;
7571;SDS011;3827;49.928;8.548;2023-07-31T04:31:45;4.07;;;2.22;;
7571;SDS011;3827;49.928;8.548;2023-07-31T04:34:12;4.05;;;2.00;;
7571;SDS011;3827;49.928;8.548;2023-07-31T04:36:40;3.08;;;1.92;;
7571;SDS011;3827;49.928;8.548;2023-07-31T04:39:07;4.03;;;1.97;;
7571;SDS011;3827;49.928;8.548;2023-07-31T04:41:33;3.93;;;2.00;;
7571;SDS011;3827;49.928;8.548;2023-07-31T04:44:00;3.42;;;1.90;;
7571;SDS011;3827;49.928;8.548;2023-07-31T04:46:28;4.57;;;2.00;;
7571;SDS011;3827;49.928;8.548;2023-07-31T04:48:55;3.47;;;2.08;;
7571;SDS011;3827;49.928;8.548;2023-07-31T04:51:22;5.80;;;1.90;;
7571;SDS011;3827;49.928;8.548;2023-07-31T04:53:51;4.38;;;1.95;;
7571;SDS011;3827;49.928;8.548;2023-07-31T04:56:20;3.60;;;1.90;;
7571;SDS011;3827;49.928;8.548;2023-07-31T04:58:46;4.63;;;1.65;;
7571;SDS011;3827;49.928;8.548;2023-07-31T05:01:13;3.75;;;1.90;;
7571;SDS011;3827;49.928;8.548;2023-07-31T05:03:40;4.00;;;2.20;;
7571;SDS011;3827;49.928;8.548;2023-07-31T05:06:07;4.13;;;2.15;;
7571;SDS011;3827;49.928;8.548;2023-07-31T05:08:33;3.50;;;2.05;;
7571;SDS011;3827;49.928;8.548;2023-07-31T05:11:03;5.72;;;2.13;;
7571;SDS011;3827;49.928;8.548;2023-07-31T05:13:30;4.55;;;2.03;;
7571;SDS011;3827;49.928;8.548;2023-07-31T05:15:56;3.17;;;1.90;;
7571;SDS011;3827;49.928;8.548;2023-07-31T05:18:23;2.90;;;1.90;;
7571;SDS011;3827;49.928;8.548;2023-07-31T05:20:50;3.17;;;1.70;;
7571;SDS011;3827;49.928;8.548;2023-07-31T05:23:17;4.07;;;1.92;;
7571;SDS011;3827;49.928;8.548;2023-07-31T05:25:43;2.50;;;1.63;;
7571;SDS011;3827;49.928;8.548;2023-07-31T05:28:12;3.95;;;2.00;;
7571;SDS011;3827;49.928;8.548;2023-07-31T05:30:39;3.90;;;1.70;;
7571;SDS011;3827;49.928;8.548;2023-07-31T05:33:06;4.50;;;2.00;;
7571;SDS011;3827;49.928;8.548;2023-07-31T05:35:32;3.92;;;1.90;;
7571;SDS011;3827;49.928;8.548;2023-07-31T05:37:59;4.75;;;2.10;;
7571;SDS011;3827;49.928;8.548;2023-07-31T05:40:26;2.83;;;1.80;;
7571;SDS011;3827;49.928;8.548;2023-07-31T05:42:53;3.22;;;1.80;;
7571;SDS011;3827;49.928;8.548;2023-07-31T05:45:25;3.83;;;2.60;;
7571;SDS011;3827;49.928;8.548;2023-07-31T05:47:51;3.13;;;2.05;;
7571;SDS011;3827;49.928;8.548;2023-07-31T05:50:18;4.07;;;2.30;;
7571;SDS011;3827;49.928;8.548;2023-07-31T05:52:45;3.28;;;1.65;;
7571;SDS011;3827;49.928;8.548;2023-07-31T05:55:12;3.63;;;1.70;;
7571;SDS011;3827;49.928;8.548;2023-07-31T05:57:38;2.28;;;1.73;;
7571;SDS011;3827;49.928;8.548;2023-07-31T06:00:06;2.63;;;1.92;;
7571;SDS011;3827;49.928;8.548;2023-07-31T06:02:35;2.38;;;2.00;;
7571;SDS011;3827;49.928;8.548;2023-07-31T06:05:02;4.70;;;1.77;;
7571;SDS011;3827;49.928;8.548;2023-07-31T06:07:30;2.97;;;1.75;;
7571;SDS011;3827;49.928;8.548;2023-07-31T06:09:57;2.30;;;1.70;;
7571;SDS011;3827;49.928;8.548;2023-07-31T06:12:29;3.85;;;1.90;;
7571;SDS011;3827;49.928;8.548;2023-07-31T06:14:56;4.35;;;2.00;;
7571;SDS011;3827;49.928;8.548;2023-07-31T06:17:23;5.47;;;2.00;;
7571;SDS011;3827;49.928;8.548;2023-07-31T06:19:52;3.85;;;1.90;;
7571;SDS011;3827;49.928;8.548;2023-07-31T06:22:19;4.70;;;2.00;;
7571;SDS011;3827;49.928;8.548;2023-07-31T06:24:46;4.63;;;1.83;;
7571;SDS011;3827;49.928;8.548;2023-07-31T06:27:12;3.57;;;1.97;;
7571;SDS011;3827;49.928;8.548;2023-07-31T06:29:39;3.23;;;1.77;;
7571;SDS011;3827;49.928;8.548;2023-07-31T06:32:06;2.23;;;1.73;;
7571;SDS011;3827;49.928;8.548;2023-07-31T06:34:33;4.60;;;2.00;;
7571;SDS011;3827;49.928;8.548;2023-07-31T06:37:02;4.13;;;1.75;;
7571;SDS011;3827;49.928;8.548;2023-07-31T06:39:28;5.28;;;2.00;;
7571;SDS011;3827;49.928;8.548;2023-07-31T06:41:55;3.20;;;1.75;;
7571;SDS011;3827;49.928;8.548;2023-07-31T06:44:22;2.97;;;1.73;;
7571;SDS011;3827;49.928;8.548;2023-07-31T06:46:48;4.15;;;1.80;;
7571;SDS011;3827;49.928;8.548;2023-07-31T06:49:15;4.30;;;1.98;;
7571;SDS011;3827;49.928;8.548;2023-07-31T06:51:42;4.15;;;2.00;;
7571;SDS011;3827;49.928;8.548;2023-07-31T06:54:11;2.78;;;1.60;;
7571;SDS011;3827;49.928;8.548;2023-07-31T06:56:38;3.22;;;1.70;;
7571;SDS011;3827;49.928;8.548;2023-07-31T06:59:05;3.20;;;1.70;;
7571;SDS011;3827;49.928;8.548;2023-07-31T07:01:31;3.00;;;2.08;;
7571;SDS011;3827;49.928;8.548;2023-07-31T07:03:58;4.10;;;1.70;;
7571;SDS011;3827;49.928;8.548;2023-07-31T07:06:25;3.63;;;1.80;;
7571;SDS011;3827;49.928;8.548;2023-07-31T07:08:52;3.95;;;2.00;;
7571;SDS011;3827;49.928;8.548;2023-07-31T07:11:20;3.63;;;1.77;;
7571;SDS011;3827;49.928;8.548;2023-07-31T07:13:46;3.60;;;2.40;;
7571;SDS011;3827;49.928;8.548;2023-07-31T07:16:14;2.85;;;1.70;;
7571;SDS011;3827;49.928;8.548;2023-07-31T07:18:41;5.93;;;1.92;;
7571;SDS011;3827;49.928;8.548;2023-07-31T07:21:08;5.38;;;2.05;;
7571;SDS011;3827;49.928;8.548;2023-07-31T07:23:34;5.57;;;2.00;;
7571;SDS011;3827;49.928;8.548;2023-07-31T07:26:01;3.33;;;1.80;;
7571;SDS011;3827;49.928;8.548;2023-07-31T07:28:29;3.45;;;1.70;;
7571;SDS011;3827;49.928;8.548;2023-07-31T07:30:56;2.30;;;1.70;;
7571;SDS011;3827;49.928;8.548;2023-07-31T07:33:23;3.08;;;1.90;;
7571;SDS011;3827;49.928;8.548;2023-07-31T07:35:50;3.83;;;1.65;;
7571;SDS011;3827;49.928;8.548;2023-07-31T07:38:16;3.30;;;1.60;;
7571;SDS011;3827;49.928;8.548;2023-07-31T07:40:44;3.72;;;1.65;;
7571;SDS011;3827;49.928;8.548;2023-07-31T07:43:11;3.35;;;2.00;;
7571;SDS011;3827;49.928;8.548;2023-07-31T07:45:40;3.30;;;1.70;;
7571;SDS011;3827;49.928;8.548;2023-07-31T07:48:06;2.65;;;1.70;;
7571;SDS011;3827;49.928;8.548;2023-07-31T07:50:33;2.70;;;1.95;;
7571;SDS011;3827;49.928;8.548;2023-07-31T07:53:00;3.07;;;1.63;;
7571;SDS011;3827;49.928;8.548;2023-07-31T07:55:26;3.88;;;1.80;;
7571;SDS011;3827;49.928;8.548;2023-07-31T07:57:53;2.60;;;1.45;;
7571;SDS011;3827;49.928;8.548;2023-07-31T08:00:20;1.98;;;1.60;;
7571;SDS011;3827;49.928;8.548;2023-07-31T08:02:48;4.70;;;1.85;;
7571;SDS011;3827;49.928;8.548;2023-07-31T08:05:15;2.75;;;1.85;;
7571;SDS011;3827;49.928;8.548;2023-07-31T08:07:42;3.33;;;1.80;;
7571;SDS011;3827;49.928;8.548;2023-07-31T08:10:09;4.43;;;1.85;;
7571;SDS011;3827;49.928;8.548;2023-07-31T08:12:36;6.35;;;1.85;;
7571;SDS011;3827;49.928;8.548;2023-07-31T08:15:03;2.72;;;1.60;;
7571;SDS011;3827;49.928;8.548;2023-07-31T08:17:31;2.72;;;2.00;;
7571;SDS011;3827;49.928;8.548;2023-07-31T08:19:59;2.40;;;1.73;;
7571;SDS011;3827;49.928;8.548;2023-07-31T08:22:26;3.03;;;1.75;;
7571;SDS011;3827;49.928;8.548;2023-07-31T08:24:52;4.15;;;2.13;;
7571;SDS011;3827;49.928;8.548;2023-07-31T08:27:19;2.92;;;1.55;;
7571;SDS011;3827;49.928;8.548;2023-07-31T08:29:46;3.95;;;2.00;;
7571;SDS011;3827;49.928;8.548;2023-07-31T08:32:13;3.88;;;1.90;;
7571;SDS011;3827;49.928;8.548;2023-07-31T08:34:39;1.70;;;1.27;;
7571;SDS011;3827;49.928;8.548;2023-07-31T08:37:08;3.47;;;2.00;;
7571;SDS011;3827;49.928;8.548;2023-07-31T08:39:36;2.22;;;1.83;;
7571;SDS011;3827;49.928;8.548;2023-07-31T08:42:07;3.50;;;1.75;;
7571;SDS011;3827;49.928;8.548;2023-07-31T08:44:34;3.78;;;2.13;;
7571;SDS011;3827;49.928;8.548;2023-07-31T08:47:02;4.77;;;1.90;;
7571;SDS011;3827;49.928;8.548;2023-07-31T08:49:30;3.45;;;1.67;;
7571;SDS011;3827;49.928;8.548;2023-07-31T08:51:57;3.10;;;1.88;;
7571;SDS011;3827;49.928;8.548;2023-07-31T08:54:25;2.70;;;1.60;;
7571;SDS011;3827;49.928;8.548;2023-07-31T08:56:55;3.97;;;1.67;;
7571;SDS011;3827;49.928;8.548;2023-07-31T08:59:24;3.25;;;1.70;;
7571;SDS011;3827;49.928;8.548;2023-07-31T09:01:53;2.17;;;1.80;;
7571;SDS011;3827;49.928;8.548;2023-07-31T09:04:21;2.78;;;1.52;;
7571;SDS011;3827;49.928;8.548;2023-07-31T09:06:49;2.58;;;1.90;;
7571;SDS011;3827;49.928;8.548;2023-07-31T09:09:20;3.00;;;1.80;;
7571;SDS011;3827;49.928;8.548;2023-07-31T09:11:49;3.80;;;1.53;;
7571;SDS011;3827;49.928;8.548;2023-07-31T09:14:16;2.47;;;1.75;;
7571;SDS011;3827;49.928;8.548;2023-07-31T09:16:53;3.40;;;2.00;;
7571;SDS011;3827;49.928;8.548;2023-07-31T09:19:27;2.53;;;1.70;;
7571;SDS011;3827;49.928;8.548;2023-07-31T09:21:55;3.33;;;2.13;;
7571;SDS011;3827;49.928;8.548;2023-07-31T09:24:25;4.03;;;1.77;;
7571;SDS011;3827;49.928;8.548;2023-07-31T09:26:55;3.50;;;1.98;;
7571;SDS011;3827;49.928;8.548;2023-07-31T09:29:23;2.20;;;1.80;;
7571;SDS011;3827;49.928;8.548;2023-07-31T09:31:52;4.70;;;2.08;;
7571;SDS011;3827;49.928;8.548;2023-07-31T09:34:19;3.33;;;2.15;;
7571;SDS011;3827;49.928;8.548;2023-07-31T09:36:53;4.20;;;1.80;;
7571;SDS011;3827;49.928;8.548;2023-07-31T09:39:21;3.60;;;1.73;;
7571;SDS011;3827;49.928;8.548;2023-07-31T09:41:53;4.25;;;1.85;;
7571;SDS011;3827;49.928;8.548;2023-07-31T09:44:22;3.40;;;1.95;;
7571;SDS011;3827;49.928;8.548;2023-07-31T09:47:04;2.67;;;1.80;;
7571;SDS011;3827;49.928;8.548;2023-07-31T09:49:31;3.90;;;1.77;;
7571;SDS011;3827;49.928;8.548;2023-07-31T09:51:58;3.70;;;1.60;;
7571;SDS011;3827;49.928;8.548;2023-07-31T09:54:25;3.65;;;1.52;;
7571;SDS011;3827;49.928;8.548;2023-07-31T09:56:52;3.80;;;1.98;;
7571;SDS011;3827;49.928;8.548;2023-07-31T09:59:21;3.78;;;2.00;;
7571;SDS011;3827;49.928;8.548;2023-07-31T10:01:49;3.77;;;1.83;;
7571;SDS011;3827;49.928;8.548;2023-07-31T10:04:16;3.22;;;1.85;;
7571;SDS011;3827;49.928;8.548;2023-07-31T10:06:48;3.22;;;2.13;;
7571;SDS011;3827;49.928;8.548;2023-07-31T10:09:16;2.78;;;2.17;;
7571;SDS011;3827;49.928;8.548;2023-07-31T10:11:46;3.83;;;2.00;;
7571;SDS011;3827;49.928;8.548;2023-07-31T10:14:16;4.50;;;2.00;;
7571;SDS011;3827;49.928;8.548;2023-07-31T10:16:47;3.47;;;2.10;;
7571;SDS011;3827;49.928;8.548;2023-07-31T10:19:14;3.42;;;1.98;;
7571;SDS011;3827;49.928;8.548;2023-07-31T10:21:41;3.42;;;2.00;;
7571;SDS011;3827;49.928;8.548;2023-07-31T10:24:09;3.35;;;1.98;;
7571;SDS011;3827;49.928;8.548;2023-07-31T10:26:37;3.87;;;2.10;;
7571;SDS011;3827;49.928;8.548;2023-07-31T10:29:05;4.00;;;2.03;;
7571;SDS011;3827;49.928;8.548;2023-07-31T10:31:32;6.50;;;2.35;;
7571;SDS011;3827;49.928;8.548;2023-07-31T10:34:02;3.42;;;1.90;;
7571;SDS011;3827;49.928;8.548;2023-07-31T10:36:29;2.97;;;2.10;;
7571;SDS011;3827;49.928;8.548;2023-07-31T10:38:56;3.95;;;2.08;;
7571;SDS011;3827;49.928;8.548;2023-07-31T10:41:28;3.70;;;2.20;;
7571;SDS011;3827;49.928;8.548;2023-07-31T10:43:57;3.93;;;2.23;;
7571;SDS011;3827;49.928;8.548;2023-07-31T10:46:24;3.60;;;2.10;;
7571;SDS011;3827;49.928;8.548;2023-07-31T10:48:56;5.75;;;2.15;;
7571;SDS011;3827;49.928;8.548;2023-07-31T10:51:26;4.00;;;1.90;;
7571;SDS011;3827;49.928;8.548;2023-07-31T10:54:10;2.87;;;2.03;;
7571;SDS011;3827;49.928;8.548;2023-07-31T10:56:37;3.35;;;1.77;;
7571;SDS011;3827;49.928;8.548;2023-07-31T10:59:04;4.20;;;2.03;;
7571;SDS011;3827;49.928;8.548;2023-07-31T11:04:16;4.20;;;1.90;;
7571;SDS011;3827;49.928;8.548;2023-07-31T11:06:56;2.27;;;1.73;;
7571;SDS011;3827;49.928;8.548;2023-07-31T11:09:24;3.33;;;2.10;;
7571;SDS011;3827;49.928;8.548;2023-07-31T11:11:54;3.83;;;2.25;;
7571;SDS011;3827;49.928;8.548;2023-07-31T11:14:22;4.78;;;2.05;;
7571;SDS011;3827;49.928;8.548;2023-07-31T11:16:49;4.13;;;2.22;;
7571;SDS011;3827;49.928;8.548;2023-07-31T11:19:20;3.47;;;2.05;;
7571;SDS011;3827;49.928;8.548;2023-07-31T11:21:48;3.55;;;1.98;;
7571;SDS011;3827;49.928;8.548;2023-07-31T11:24:16;4.35;;;1.88;;
7571;SDS011;3827;49.928;8.548;2023-07-31T11:26:47;3.08;;;1.85;;
7571;SDS011;3827;49.928;8.548;2023-07-31T11:29:15;3.10;;;1.95;;
7571;SDS011;3827;49.928;8.548;2023-07-31T11:31:42;3.25;;;2.00;;
7571;SDS011;3827;49.928;8.548;2023-07-31T11:34:09;2.27;;;1.80;;
7571;SDS011;3827;49.928;8.548;2023-07-31T11:36:36;2.85;;;1.85;;
7571;SDS011;3827;49.928;8.548;2023-07-31T11:39:05;2.38;;;1.90;;
7571;SDS011;3827;49.928;8.548;2023-07-31T11:41:34;4.00;;;2.00;;
7571;SDS011;3827;49.928;8.548;2023-07-31T11:44:01;3.08;;;1.90;;
7571;SDS011;3827;49.928;8.548;2023-07-31T11:46:29;3.70;;;1.90;;
7571;SDS011;3827;49.928;8.548;2023-07-31T11:48:59;3.28;;;1.65;;
7571;SDS011;3827;49.928;8.548;2023-07-31T11:51:28;3.60;;;1.80;;
7571;SDS011;3827;49.928;8.548;2023-07-31T11:53:56;3.00;;;2.00;;
7571;SDS011;3827;49.928;8.548;2023-07-31T11:56:24;3.03;;;2.03;;
7571;SDS011;3827;49.928;8.548;2023-07-31T11:58:55;4.28;;;2.10;;
7571;SDS011;3827;49.928;8.548;2023-07-31T12:01:24;3.33;;;2.10;;
7571;SDS011;3827;49.928;8.548;2023-07-31T12:03:52;5.00;;;2.17;;
7571;SDS011;3827;49.928;8.548;2023-07-31T12:06:19;3.15;;;2.10;;
7571;SDS011;3827;49.928;8.548;2023-07-31T12:08:47;4.13;;;1.90;;
7571;SDS011;3827;49.928;8.548;2023-07-31T12:11:14;3.00;;;1.90;;
7571;SDS011;3827;49.928;8.548;2023-07-31T12:13:42;3.45;;;2.03;;
7571;SDS011;3827;49.928;8.548;2023-07-31T12:16:10;3.87;;;1.80;;
7571;SDS011;3827;49.928;8.548;2023-07-31T12:18:37;3.40;;;1.90;;
7571;SDS011;3827;49.928;8.548;2023-07-31T12:21:05;3.58;;;1.95;;
7571;SDS011;3827;49.928;8.548;2023-07-31T12:23:36;4.30;;;2.17;;
7571;SDS011;3827;49.928;8.548;2023-07-31T12:26:05;3.10;;;1.90;;
7571;SDS011;3827;49.928;8.548;2023-07-31T12:28:36;2.63;;;1.77;;
7571;SDS011;3827;49.928;8.548;2023-07-31T12:31:04;3.65;;;2.15;;
7571;SDS011;3827;49.928;8.548;2023-07-31T12:33:33;4.22;;;2.42;;
7571;SDS011;3827;49.928;8.548;2023-07-31T12:36:01;4.03;;;2.00;;
7571;SDS011;3827;49.928;8.548;2023-07-31T12:38:29;3.13;;;2.03;;
7571;SDS011;3827;49.928;8.548;2023-07-31T12:40:56;2.70;;;1.80;;
7571;SDS011;3827;49.928;8.548;2023-07-31T12:43:23;3.13;;;2.00;;
7571;SDS011;3827;49.928;8.548;2023-07-31T12:45:50;3.47;;;1.95;;
7571;SDS011;3827;49.928;8.548;2023-07-31T12:48:16;3.75;;;2.10;;
7571;SDS011;3827;49.928;8.548;2023-07-31T12:50:45;2.53;;;1.80;;
7571;SDS011;3827;49.928;8.548;2023-07-31T12:53:11;2.67;;;1.85;;
7571;SDS011;3827;49.928;8.548;2023-07-31T12:55:38;2.97;;;1.92;;
7571;SDS011;3827;49.928;8.548;2023-07-31T12:58:05;2.22;;;1.98;;
7571;SDS011;3827;49.928;8.548;2023-07-31T13:00:31;4.60;;;2.30;;
7571;SDS011;3827;49.928;8.548;2023-07-31T13:02:58;2.70;;;2.05;;
7571;SDS011;3827;49.928;8.548;2023-07-31T13:05:25;3.30;;;1.90;;
7571;SDS011;3827;49.928;8.548;2023-07-31T13:07:54;4.75;;;2.30;;
7571;SDS011;3827;49.928;8.548;2023-07-31T13:10:21;2.70;;;1.95;;
7571;SDS011;3827;49.928;8.548;2023-07-31T13:12:49;2.30;;;2.00;;
7571;SDS011;3827;49.928;8.548;2023-07-31T13:15:16;2.78;;;1.90;;
7571;SDS011;3827;49.928;8.548;2023-07-31T13:17:42;3.40;;;2.03;;
7571;SDS011;3827;49.928;8.548;2023-07-31T13:20:09;3.83;;;2.40;;
7571;SDS011;3827;49.928;8.548;2023-07-31T13:22:36;3.50;;;1.85;;
7571;SDS011;3827;49.928;8.548;2023-07-31T13:25:05;4.97;;;2.22;;
7571;SDS011;3827;49.928;8.548;2023-07-31T13:27:33;4.20;;;1.92;;
7571;SDS011;3827;49.928;8.548;2023-07-31T13:30:01;1.95;;;1.63;;
7571;SDS011;3827;49.928;8.548;2023-07-31T13:32:28;2.95;;;1.88;;
7571;SDS011;3827;49.928;8.548;2023-07-31T13:34:55;4.30;;;1.70;;
7571;SDS011;3827;49.928;8.548;2023-07-31T13:37:22;2.38;;;1.88;;
7571;SDS011;3827;49.928;8.548;2023-07-31T13:39:49;3.55;;;1.77;;
7571;SDS011;3827;49.928;8.548;2023-07-31T13:42:17;2.72;;;1.60;;
7571;SDS011;3827;49.928;8.548;2023-07-31T13:44:43;3.97;;;1.90;;
7571;SDS011;3827;49.928;8.548;2023-07-31T13:47:10;2.97;;;2.00;;
7571;SDS011;3827;49.928;8.548;2023-07-31T13:49:37;3.67;;;2.00;;
7571;SDS011;3827;49.928;8.548;2023-07-31T13:52:04;4.22;;;2.00;;
7571;SDS011;3827;49.928;8.548;2023-07-31T13:54:31;4.30;;;1.80;;
7571;SDS011;3827;49.928;8.548;2023-07-31T13:56:58;3.17;;;1.97;;
7571;SDS011;3827;49.928;8.548;2023-07-31T13:59:27;1.98;;;1.70;;
7571;SDS011;3827;49.928;8.548;2023-07-31T14:01:54;4.60;;;2.10;;
7571;SDS011;3827;49.928;8.548;2023-07-31T14:04:20;3.13;;;2.10;;
7571;SDS011;3827;49.928;8.548;2023-07-31T14:06:47;2.63;;;1.80;;
7571;SDS011;3827;49.928;8.548;2023-07-31T14:09:15;4.35;;;2.10;;
7571;SDS011;3827;49.928;8.548;2023-07-31T14:11:42;6.43;;;2.40;;
7571;SDS011;3827;49.928;8.548;2023-07-31T14:14:09;3.05;;;1.83;;
7571;SDS011;3827;49.928;8.548;2023-07-31T14:16:37;3.55;;;1.88;;
7571;SDS011;3827;49.928;8.548;2023-07-31T14:19:04;3.30;;;2.10;;
7571;SDS011;3827;49.928;8.548;2023-07-31T14:21:32;3.15;;;1.90;;
7571;SDS011;3827;49.928;8.548;2023-07-31T14:23:59;4.95;;;2.08;;
7571;SDS011;3827;49.928;8.548;2023-07-31T14:26:26;5.28;;;3.13;;
7571;SDS011;3827;49.928;8.548;2023-07-31T14:28:52;3.00;;;1.98;;
7571;SDS011;3827;49.928;8.548;2023-07-31T14:31:19;3.67;;;1.98;;
7571;SDS011;3827;49.928;8.548;2023-07-31T14:33:47;3.08;;;2.20;;
7571;SDS011;3827;49.928;8.548;2023-07-31T14:36:14;2.65;;;1.80;;
7571;SDS011;3827;49.928;8.548;2023-07-31T14:38:41;4.40;;;2.10;;
7571;SDS011;3827;49.928;8.548;2023-07-31T14:41:07;5.57;;;2.10;;
7571;SDS011;3827;49.928;8.548;2023-07-31T14:43:34;2.97;;;1.97;;
7571;SDS011;3827;49.928;8.548;2023-07-31T14:46:01;5.68;;;2.03;;
7571;SDS011;3827;49.928;8.548;2023-07-31T14:48:28;1.88;;;1.70;;
7571;SDS011;3827;49.928;8.548;2023-07-31T14:50:56;4.15;;;2.10;;
7571;SDS011;3827;49.928;8.548;2023-07-31T14:53:23;1.90;;;1.70;;
7571;SDS011;3827;49.928;8.548;2023-07-31T14:55:50;3.08;;;1.70;;
7571;SDS011;3827;49.928;8.548;2023-07-31T14:58:16;2.83;;;1.52;;
7571;SDS011;3827;49.928;8.548;2023-07-31T15:00:43;2.58;;;1.50;;
7571;SDS011;3827;49.928;8.548;2023-07-31T15:03:10;2.03;;;1.60;;
7571;SDS011;3827;49.928;8.548;2023-07-31T15:05:37;2.42;;;1.73;;
7571;SDS011;3827;49.928;8.548;2023-07-31T15:08:05;3.85;;;1.80;;
7571;SDS011;3827;49.928;8.548;2023-07-31T15:10:32;2.38;;;1.77;;
7571;SDS011;3827;49.928;8.548;2023-07-31T15:12:59;4.75;;;1.85;;
7571;SDS011;3827;49.928;8.548;2023-07-31T15:15:26;2.17;;;1.40;;
7571;SDS011;3827;49.928;8.548;2023-07-31T15:17:53;3.00;;;1.67;;
7571;SDS011;3827;49.928;8.548;2023-07-31T15:20:20;2.80;;;1.50;;